sensor_id;sensor_type;location;lat;lon;timestamp;temperature;humidity
49901;DHT22;35789;48.414;12.768;2023-01-04T00:00:00;1.7;99.9
49901;DHT22;35789;48.414;12.768;2023-01-04T00:05:00;1.7;99.9
49901;DHT22;35789;48.414;12.768;2023-01-04T00:10:00;1.7;99.9
49901;DHT22;35789;48.414;12.768;2023-01-04T00:15:00;1.8;99.9
49901;DHT22;35789;48.414;12.768;2023-01-04T00:20:00;1.8;99.9
49901;DHT22;35789;48.414;12.768;2023-01-04T00:25:00;2.0;99.9
49901;DHT22;35789;48.414;12.768;2023-01-04T00:30:00;1.9;99.9
49901;DHT22;35789;48.414;12.768;2023-01-04T00:35:00;1.9;99.9
49901;DHT22;35789;48.414;12.768;2023-01-04T00:40:00;2.0;99.9
49901;DHT22;35789;48.414;12.768;2023-01-04T00:45:00;2.1;99.9
49901;DHT22;35789;48.414;12.768;2023-01-04T00:50:00;2.1;99.9
49901;DHT22;35789;48.414;12.768;2023-01-04T00:55:00;2.1;99.9
49901;DHT22;35789;48.414;12.768;2023-01-04T01:00:00;2.1;99.9
49901;DHT22;35789;48.414;12.768;2023-01-04T01:05:00;2.2;99.9
49901;DHT22;35789;48.414;12.768;2023-01-04T01:10:00;2.1;99.9
49901;DHT22;35789;48.414;12.768;2023-01-04T01:15:00;2.1;99.9
49901;DHT22;35789;48.414;12.768;2023-01-04T01:20:00;2.2;99.9
49901;DHT22;35789;48.414;12.768;2023-01-04T01:25:00;2.2;99.9
49901;DHT22;35789;48.414;12.768;2023-01-04T01:30:00;2.2;99.9
49901;DHT22;35789;48.414;12.768;2023-01-04T01:35:00;2.2;99.9
49901;DHT22;35789;48.414;12.768;2023-01-04T01:40:00;2.2;99.9
49901;DHT22;35789;48.414;12.768;2023-01-04T01:45:01;2.3;99.9
49901;DHT22;35789;48.414;12.768;2023-01-04T01:50:00;2.3;99.9
49901;DHT22;35789;48.414;12.768;2023-01-04T01:55:02;2.3;99.9
49901;DHT22;35789;48.414;12.768;2023-01-04T02:00:02;2.2;99.9
49901;DHT22;35789;48.414;12.768;2023-01-04T02:05:00;2.2;99.9
49901;DHT22;35789;48.414;12.768;2023-01-04T02:10:00;2.3;99.9
49901;DHT22;35789;48.414;12.768;2023-01-04T02:15:00;2.3;99.9
49901;DHT22;35789;48.414;12.768;2023-01-04T02:25:09;2.2;99.9
49901;DHT22;35789;48.414;12.768;2023-01-04T02:30:05;2.1;99.9
49901;DHT22;35789;48.414;12.768;2023-01-04T02:35:02;2.1;99.9
49901;DHT22;35789;48.414;12.768;2023-01-04T02:40:02;2.1;99.9
49901;DHT22;35789;48.414;12.768;2023-01-04T02:45:01;2.2;99.9
49901;DHT22;35789;48.414;12.768;2023-01-04T02:50:00;2.2;99.9
49901;DHT22;35789;48.414;12.768;2023-01-04T02:55:00;2.3;99.9
49901;DHT22;35789;48.414;12.768;2023-01-04T03:00:05;2.2;99.9
49901;DHT22;35789;48.414;12.768;2023-01-04T03:05:03;2.2;99.9
49901;DHT22;35789;48.414;12.768;2023-01-04T03:10:01;2.3;99.9
49901;DHT22;35789;48.414;12.768;2023-01-04T03:15:02;2.3;99.9
49901;DHT22;35789;48.414;12.768;2023-01-04T03:20:00;2.2;99.9
49901;DHT22;35789;48.414;12.768;2023-01-04T03:25:00;2.4;99.9
49901;DHT22;35789;48.414;12.768;2023-01-04T03:30:01;2.4;99.9
49901;DHT22;35789;48.414;12.768;2023-01-04T03:35:00;2.4;99.9
49901;DHT22;35789;48.414;12.768;2023-01-04T03:40:05;2.4;99.9
49901;DHT22;35789;48.414;12.768;2023-01-04T03:45:03;2.5;99.9
49901;DHT22;35789;48.414;12.768;2023-01-04T03:50:01;2.5;99.9
49901;DHT22;35789;48.414;12.768;2023-01-04T03:55:00;2.6;99.9
49901;DHT22;35789;48.414;12.768;2023-01-04T04:00:01;2.5;99.9
49901;DHT22;35789;48.414;12.768;2023-01-04T04:05:00;2.6;99.9
49901;DHT22;35789;48.414;12.768;2023-01-04T04:10:00;2.6;99.9
49901;DHT22;35789;48.414;12.768;2023-01-04T04:15:00;2.6;99.9
49901;DHT22;35789;48.414;12.768;2023-01-04T04:20:00;2.6;99.9
49901;DHT22;35789;48.414;12.768;2023-01-04T04:25:00;2.7;99.9
49901;DHT22;35789;48.414;12.768;2023-01-04T04:30:00;2.7;99.9
49901;DHT22;35789;48.414;12.768;2023-01-04T04:35:00;2.7;99.9
49901;DHT22;35789;48.414;12.768;2023-01-04T04:40:00;2.7;99.9
49901;DHT22;35789;48.414;12.768;2023-01-04T04:45:00;2.8;99.9
49901;DHT22;35789;48.414;12.768;2023-01-04T04:50:00;2.8;99.9
49901;DHT22;35789;48.414;12.768;2023-01-04T04:55:00;2.8;99.9
49901;DHT22;35789;48.414;12.768;2023-01-04T05:00:00;2.9;99.9
49901;DHT22;35789;48.414;12.768;2023-01-04T05:05:00;3.0;99.9
49901;DHT22;35789;48.414;12.768;2023-01-04T05:10:00;3.1;99.9
49901;DHT22;35789;48.414;12.768;2023-01-04T05:15:00;3.2;99.9
49901;DHT22;35789;48.414;12.768;2023-01-04T05:20:00;3.1;99.9
49901;DHT22;35789;48.414;12.768;2023-01-04T05:25:00;3.1;99.9
49901;DHT22;35789;48.414;12.768;2023-01-04T05:30:00;3.2;99.9
49901;DHT22;35789;48.414;12.768;2023-01-04T05:35:00;3.1;99.9
49901;DHT22;35789;48.414;12.768;2023-01-04T05:40:00;3.1;99.9
49901;DHT22;35789;48.414;12.768;2023-01-04T05:45:00;3.1;99.9
49901;DHT22;35789;48.414;12.768;2023-01-04T05:50:00;3.1;99.9
49901;DHT22;35789;48.414;12.768;2023-01-04T05:55:00;3.1;99.9
49901;DHT22;35789;48.414;12.768;2023-01-04T06:00:00;3.1;99.9
49901;DHT22;35789;48.414;12.768;2023-01-04T06:05:00;3.2;99.9
49901;DHT22;35789;48.414;12.768;2023-01-04T06:10:00;3.2;99.9
49901;DHT22;35789;48.414;12.768;2023-01-04T06:15:00;3.2;99.9
49901;DHT22;35789;48.414;12.768;2023-01-04T06:20:00;3.2;99.9
49901;DHT22;35789;48.414;12.768;2023-01-04T06:25:00;3.2;99.9
49901;DHT22;35789;48.414;12.768;2023-01-04T06:30:00;3.2;99.9
49901;DHT22;35789;48.414;12.768;2023-01-04T06:35:00;3.2;99.9
49901;DHT22;35789;48.414;12.768;2023-01-04T06:40:00;3.3;99.9
49901;DHT22;35789;48.414;12.768;2023-01-04T06:45:00;3.2;99.9
49901;DHT22;35789;48.414;12.768;2023-01-04T06:50:00;3.2;99.9
49901;DHT22;35789;48.414;12.768;2023-01-04T06:55:00;3.2;99.9
49901;DHT22;35789;48.414;12.768;2023-01-04T07:00:00;3.3;99.9
49901;DHT22;35789;48.414;12.768;2023-01-04T07:05:00;3.3;99.9
49901;DHT22;35789;48.414;12.768;2023-01-04T07:10:00;3.3;99.9
49901;DHT22;35789;48.414;12.768;2023-01-04T07:15:00;3.3;99.9
49901;DHT22;35789;48.414;12.768;2023-01-04T07:20:00;3.3;99.9
49901;DHT22;35789;48.414;12.768;2023-01-04T07:25:00;3.3;99.9
49901;DHT22;35789;48.414;12.768;2023-01-04T07:30:00;3.4;99.9
49901;DHT22;35789;48.414;12.768;2023-01-04T07:35:00;3.3;99.9
49901;DHT22;35789;48.414;12.768;2023-01-04T07:40:00;3.2;99.9
49901;DHT22;35789;48.414;12.768;2023-01-04T07:45:00;3.2;99.9
49901;DHT22;35789;48.414;12.768;2023-01-04T07:50:00;3.2;99.9
49901;DHT22;35789;48.414;12.768;2023-01-04T07:55:00;3.2;99.9
49901;DHT22;35789;48.414;12.768;2023-01-04T08:00:00;3.2;99.9
49901;DHT22;35789;48.414;12.768;2023-01-04T08:05:00;3.3;99.9
49901;DHT22;35789;48.414;12.768;2023-01-04T08:10:00;3.2;99.9
49901;DHT22;35789;48.414;12.768;2023-01-04T08:15:00;3.3;99.9
49901;DHT22;35789;48.414;12.768;2023-01-04T08:20:00;3.4;99.9
49901;DHT22;35789;48.414;12.768;2023-01-04T08:25:00;3.4;99.9
49901;DHT22;35789;48.414;12.768;2023-01-04T08:30:00;3.5;99.9
49901;DHT22;35789;48.414;12.768;2023-01-04T08:35:00;3.5;99.9
49901;DHT22;35789;48.414;12.768;2023-01-04T08:40:00;3.3;99.9
49901;DHT22;35789;48.414;12.768;2023-01-04T08:45:00;3.3;99.9
49901;DHT22;35789;48.414;12.768;2023-01-04T08:50:00;3.3;99.9
49901;DHT22;35789;48.414;12.768;2023-01-04T08:55:00;3.3;99.9
49901;DHT22;35789;48.414;12.768;2023-01-04T09:00:00;3.3;99.9
49901;DHT22;35789;48.414;12.768;2023-01-04T09:05:00;3.3;99.9
49901;DHT22;35789;48.414;12.768;2023-01-04T09:10:00;3.4;99.9
49901;DHT22;35789;48.414;12.768;2023-01-04T09:15:00;3.5;99.9
49901;DHT22;35789;48.414;12.768;2023-01-04T09:20:00;3.5;99.9
49901;DHT22;35789;48.414;12.768;2023-01-04T09:25:00;3.6;99.9
49901;DHT22;35789;48.414;12.768;2023-01-04T09:30:00;3.7;99.9
49901;DHT22;35789;48.414;12.768;2023-01-04T09:35:00;3.9;99.9
49901;DHT22;35789;48.414;12.768;2023-01-04T09:40:00;4.0;99.9
49901;DHT22;35789;48.414;12.768;2023-01-04T09:45:03;4.0;99.9
49901;DHT22;35789;48.414;12.768;2023-01-04T09:50:01;4.1;99.9
49901;DHT22;35789;48.414;12.768;2023-01-04T09:55:00;4.2;99.9
49901;DHT22;35789;48.414;12.768;2023-01-04T10:00:02;4.3;99.9
49901;DHT22;35789;48.414;12.768;2023-01-04T10:05:00;4.5;99.9
49901;DHT22;35789;48.414;12.768;2023-01-04T10:10:00;4.8;99.9
49901;DHT22;35789;48.414;12.768;2023-01-04T10:15:04;5.0;99.9
49901;DHT22;35789;48.414;12.768;2023-01-04T10:20:03;5.1;99.9
49901;DHT22;35789;48.414;12.768;2023-01-04T10:25:05;5.2;99.9
49901;DHT22;35789;48.414;12.768;2023-01-04T10:30:03;5.2;99.9
49901;DHT22;35789;48.414;12.768;2023-01-04T10:35:00;5.3;99.9
49901;DHT22;35789;48.414;12.768;2023-01-04T10:40:00;5.2;99.9
49901;DHT22;35789;48.414;12.768;2023-01-04T10:45:03;5.1;99.9
49901;DHT22;35789;48.414;12.768;2023-01-04T10:50:02;5.3;99.9
49901;DHT22;35789;48.414;12.768;2023-01-04T10:55:01;5.5;99.9
49901;DHT22;35789;48.414;12.768;2023-01-04T11:00:00;5.6;99.9
49901;DHT22;35789;48.414;12.768;2023-01-04T11:05:02;5.8;99.9
49901;DHT22;35789;48.414;12.768;2023-01-04T11:10:01;5.9;99.9
49901;DHT22;35789;48.414;12.768;2023-01-04T11:15:00;6.0;99.9
49901;DHT22;35789;48.414;12.768;2023-01-04T11:20:00;6.1;99.9
49901;DHT22;35789;48.414;12.768;2023-01-04T11:25:00;6.2;99.9
49901;DHT22;35789;48.414;12.768;2023-01-04T11:30:02;6.2;99.9
49901;DHT22;35789;48.414;12.768;2023-01-04T11:35:00;6.2;99.9
49901;DHT22;35789;48.414;12.768;2023-01-04T11:45:00;6.2;99.9
49901;DHT22;35789;48.414;12.768;2023-01-04T11:50:00;6.3;99.9
49901;DHT22;35789;48.414;12.768;2023-01-04T12:00:08;6.3;99.9
49901;DHT22;35789;48.414;12.768;2023-01-04T12:05:00;6.2;99.9
49901;DHT22;35789;48.414;12.768;2023-01-04T12:10:00;6.1;99.9
49901;DHT22;35789;48.414;12.768;2023-01-04T12:15:02;6.1;99.9
49901;DHT22;35789;48.414;12.768;2023-01-04T12:20:00;6.0;99.9
49901;DHT22;35789;48.414;12.768;2023-01-04T12:25:00;6.0;99.9
49901;DHT22;35789;48.414;12.768;2023-01-04T12:30:00;6.0;99.9
49901;DHT22;35789;48.414;12.768;2023-01-04T12:35:00;6.0;99.9
49901;DHT22;35789;48.414;12.768;2023-01-04T12:40:00;6.0;99.9
49901;DHT22;35789;48.414;12.768;2023-01-04T12:45:01;6.1;99.9
49901;DHT22;35789;48.414;12.768;2023-01-04T12:50:01;6.1;99.9
49901;DHT22;35789;48.414;12.768;2023-01-04T12:55:00;6.2;99.9
49901;DHT22;35789;48.414;12.768;2023-01-04T13:00:00;6.2;99.9
49901;DHT22;35789;48.414;12.768;2023-01-04T13:05:00;6.2;99.9
49901;DHT22;35789;48.414;12.768;2023-01-04T13:10:01;6.2;99.9
49901;DHT22;35789;48.414;12.768;2023-01-04T13:15:00;6.2;99.9
49901;DHT22;35789;48.414;12.768;2023-01-04T13:20:05;6.2;99.9
49901;DHT22;35789;48.414;12.768;2023-01-04T13:25:00;6.2;99.9
49901;DHT22;35789;48.414;12.768;2023-01-04T13:30:00;6.2;99.9
49901;DHT22;35789;48.414;12.768;2023-01-04T13:35:00;6.2;99.9
49901;DHT22;35789;48.414;12.768;2023-01-04T13:40:20;6.2;99.9
49901;DHT22;35789;48.414;12.768;2023-01-04T13:45:08;6.2;99.9
49901;DHT22;35789;48.414;12.768;2023-01-04T13:50:00;6.3;99.9
49901;DHT22;35789;48.414;12.768;2023-01-04T14:00:02;6.4;99.9
49901;DHT22;35789;48.414;12.768;2023-01-04T14:05:00;6.5;99.9
49901;DHT22;35789;48.414;12.768;2023-01-04T14:10:00;6.6;99.9
49901;DHT22;35789;48.414;12.768;2023-01-04T14:15:01;6.6;99.9
49901;DHT22;35789;48.414;12.768;2023-01-04T14:20:00;6.5;99.9
49901;DHT22;35789;48.414;12.768;2023-01-04T14:25:01;6.5;99.9
49901;DHT22;35789;48.414;12.768;2023-01-04T14:30:00;6.4;99.9
49901;DHT22;35789;48.414;12.768;2023-01-04T14:35:03;6.4;99.9
49901;DHT22;35789;48.414;12.768;2023-01-04T14:40:00;6.4;99.9
49901;DHT22;35789;48.414;12.768;2023-01-04T14:45:00;6.4;99.9
49901;DHT22;35789;48.414;12.768;2023-01-04T14:50:00;6.4;99.9
49901;DHT22;35789;48.414;12.768;2023-01-04T14:55:00;6.4;99.9
49901;DHT22;35789;48.414;12.768;2023-01-04T15:00:00;6.3;99.9
49901;DHT22;35789;48.414;12.768;2023-01-04T15:05:00;6.4;99.9
49901;DHT22;35789;48.414;12.768;2023-01-04T15:10:00;6.4;99.9
49901;DHT22;35789;48.414;12.768;2023-01-04T15:15:00;6.3;99.9
49901;DHT22;35789;48.414;12.768;2023-01-04T15:20:00;6.3;99.9
49901;DHT22;35789;48.414;12.768;2023-01-04T15:25:00;6.3;99.9
49901;DHT22;35789;48.414;12.768;2023-01-04T15:30:00;6.3;99.9
49901;DHT22;35789;48.414;12.768;2023-01-04T15:35:00;6.3;99.9
49901;DHT22;35789;48.414;12.768;2023-01-04T15:40:00;6.2;99.9
49901;DHT22;35789;48.414;12.768;2023-01-04T15:45:00;6.2;99.9
49901;DHT22;35789;48.414;12.768;2023-01-04T15:50:00;6.2;99.9
49901;DHT22;35789;48.414;12.768;2023-01-04T15:55:00;6.3;99.9
49901;DHT22;35789;48.414;12.768;2023-01-04T16:00:00;6.3;99.9
49901;DHT22;35789;48.414;12.768;2023-01-04T16:05:00;6.3;99.9
49901;DHT22;35789;48.414;12.768;2023-01-04T16:20:00;6.3;99.9
49901;DHT22;35789;48.414;12.768;2023-01-04T16:25:00;6.2;99.9
49901;DHT22;35789;48.414;12.768;2023-01-04T16:30:00;6.1;99.9
49901;DHT22;35789;48.414;12.768;2023-01-04T16:35:00;6.0;99.9
49901;DHT22;35789;48.414;12.768;2023-01-04T16:40:00;5.9;99.9
49901;DHT22;35789;48.414;12.768;2023-01-04T16:45:00;5.7;99.9
49901;DHT22;35789;48.414;12.768;2023-01-04T16:50:00;5.5;99.9
49901;DHT22;35789;48.414;12.768;2023-01-04T16:55:00;5.5;99.9
49901;DHT22;35789;48.414;12.768;2023-01-04T17:00:00;5.4;99.9
49901;DHT22;35789;48.414;12.768;2023-01-04T17:05:00;5.5;99.9
49901;DHT22;35789;48.414;12.768;2023-01-04T17:10:00;5.5;99.9
49901;DHT22;35789;48.414;12.768;2023-01-04T17:15:00;5.6;99.9
49901;DHT22;35789;48.414;12.768;2023-01-04T17:20:00;5.7;99.9
49901;DHT22;35789;48.414;12.768;2023-01-04T17:25:00;5.7;99.9
49901;DHT22;35789;48.414;12.768;2023-01-04T17:30:00;5.7;99.9
49901;DHT22;35789;48.414;12.768;2023-01-04T17:35:00;5.7;99.9
49901;DHT22;35789;48.414;12.768;2023-01-04T17:40:00;5.7;99.9
49901;DHT22;35789;48.414;12.768;2023-01-04T17:45:00;5.7;99.9
49901;DHT22;35789;48.414;12.768;2023-01-04T17:50:00;5.7;99.9
49901;DHT22;35789;48.414;12.768;2023-01-04T17:55:00;5.7;99.9
49901;DHT22;35789;48.414;12.768;2023-01-04T18:00:00;5.6;99.9
49901;DHT22;35789;48.414;12.768;2023-01-04T18:05:00;5.6;99.9
49901;DHT22;35789;48.414;12.768;2023-01-04T18:10:00;5.8;99.9
49901;DHT22;35789;48.414;12.768;2023-01-04T18:15:00;6.1;99.9
49901;DHT22;35789;48.414;12.768;2023-01-04T18:20:00;6.5;99.9
49901;DHT22;35789;48.414;12.768;2023-01-04T18:25:00;6.8;99.9
49901;DHT22;35789;48.414;12.768;2023-01-04T18:30:00;7.0;99.9
49901;DHT22;35789;48.414;12.768;2023-01-04T18:35:00;7.1;99.9
49901;DHT22;35789;48.414;12.768;2023-01-04T18:40:00;7.1;99.9
49901;DHT22;35789;48.414;12.768;2023-01-04T18:45:00;7.1;99.9
49901;DHT22;35789;48.414;12.768;2023-01-04T18:50:00;7.2;99.9
49901;DHT22;35789;48.414;12.768;2023-01-04T18:55:00;7.4;99.9
49901;DHT22;35789;48.414;12.768;2023-01-04T19:00:00;7.4;99.9
49901;DHT22;35789;48.414;12.768;2023-01-04T19:05:00;7.5;99.9
49901;DHT22;35789;48.414;12.768;2023-01-04T19:10:00;7.5;99.9
49901;DHT22;35789;48.414;12.768;2023-01-04T19:15:00;7.7;99.9
49901;DHT22;35789;48.414;12.768;2023-01-04T19:20:00;7.8;99.9
49901;DHT22;35789;48.414;12.768;2023-01-04T19:25:00;7.8;99.9
49901;DHT22;35789;48.414;12.768;2023-01-04T19:30:00;7.8;99.9
49901;DHT22;35789;48.414;12.768;2023-01-04T19:35:00;7.9;99.9
49901;DHT22;35789;48.414;12.768;2023-01-04T19:40:00;7.9;99.9
49901;DHT22;35789;48.414;12.768;2023-01-04T19:45:00;7.9;99.9
49901;DHT22;35789;48.414;12.768;2023-01-04T19:50:00;7.9;99.9
49901;DHT22;35789;48.414;12.768;2023-01-04T19:55:00;7.9;99.9
49901;DHT22;35789;48.414;12.768;2023-01-04T20:00:00;8.1;99.9
49901;DHT22;35789;48.414;12.768;2023-01-04T20:05:00;8.1;99.9
49901;DHT22;35789;48.414;12.768;2023-01-04T20:10:00;8.1;99.9
49901;DHT22;35789;48.414;12.768;2023-01-04T20:15:00;8.0;99.9
49901;DHT22;35789;48.414;12.768;2023-01-04T20:20:00;8.0;99.9
49901;DHT22;35789;48.414;12.768;2023-01-04T20:25:00;8.1;99.9
49901;DHT22;35789;48.414;12.768;2023-01-04T20:30:00;8.1;99.9
49901;DHT22;35789;48.414;12.768;2023-01-04T20:35:00;8.2;99.9
49901;DHT22;35789;48.414;12.768;2023-01-04T20:40:00;8.2;99.9
49901;DHT22;35789;48.414;12.768;2023-01-04T20:45:00;8.3;99.9
49901;DHT22;35789;48.414;12.768;2023-01-04T20:50:00;8.4;99.9
49901;DHT22;35789;48.414;12.768;2023-01-04T20:55:00;8.5;99.9
49901;DHT22;35789;48.414;12.768;2023-01-04T21:00:00;8.5;99.9
49901;DHT22;35789;48.414;12.768;2023-01-04T21:05:00;8.6;99.9
49901;DHT22;35789;48.414;12.768;2023-01-04T21:10:00;8.7;99.9
49901;DHT22;35789;48.414;12.768;2023-01-04T21:15:00;8.7;99.9
49901;DHT22;35789;48.414;12.768;2023-01-04T21:20:00;8.6;99.9
49901;DHT22;35789;48.414;12.768;2023-01-04T21:25:00;8.8;99.9
49901;DHT22;35789;48.414;12.768;2023-01-04T21:30:00;8.7;99.9
49901;DHT22;35789;48.414;12.768;2023-01-04T21:35:00;8.7;99.9
49901;DHT22;35789;48.414;12.768;2023-01-04T21:40:00;8.6;99.9
49901;DHT22;35789;48.414;12.768;2023-01-04T21:45:00;8.5;99.9
49901;DHT22;35789;48.414;12.768;2023-01-04T21:50:00;8.4;99.9
49901;DHT22;35789;48.414;12.768;2023-01-04T21:55:00;8.3;99.9
49901;DHT22;35789;48.414;12.768;2023-01-04T22:00:00;8.3;99.9
49901;DHT22;35789;48.414;12.768;2023-01-04T22:05:00;8.3;99.9
49901;DHT22;35789;48.414;12.768;2023-01-04T22:10:00;8.2;99.9
49901;DHT22;35789;48.414;12.768;2023-01-04T22:15:00;8.2;99.9
49901;DHT22;35789;48.414;12.768;2023-01-04T22:20:00;8.1;99.9
49901;DHT22;35789;48.414;12.768;2023-01-04T22:25:00;8.2;99.9
49901;DHT22;35789;48.414;12.768;2023-01-04T22:30:00;8.3;99.9
49901;DHT22;35789;48.414;12.768;2023-01-04T22:35:00;8.2;99.9
49901;DHT22;35789;48.414;12.768;2023-01-04T22:40:00;8.2;99.9
49901;DHT22;35789;48.414;12.768;2023-01-04T22:50:00;8.2;99.9
49901;DHT22;35789;48.414;12.768;2023-01-04T22:55:00;8.2;99.9
49901;DHT22;35789;48.414;12.768;2023-01-04T23:00:00;8.2;99.9
49901;DHT22;35789;48.414;12.768;2023-01-04T23:05:00;8.2;99.9
49901;DHT22;35789;48.414;12.768;2023-01-04T23:10:00;8.3;99.9
49901;DHT22;35789;48.414;12.768;2023-01-04T23:15:00;8.3;99.9
49901;DHT22;35789;48.414;12.768;2023-01-04T23:20:00;8.2;99.9
49901;DHT22;35789;48.414;12.768;2023-01-04T23:25:00;8.3;99.9
49901;DHT22;35789;48.414;12.768;2023-01-04T23:30:00;8.3;99.9
49901;DHT22;35789;48.414;12.768;2023-01-04T23:35:00;8.4;99.9
49901;DHT22;35789;48.414;12.768;2023-01-04T23:40:00;8.4;99.9
49901;DHT22;35789;48.414;12.768;2023-01-04T23:45:00;8.4;99.9
49901;DHT22;35789;48.414;12.768;2023-01-04T23:50:00;8.4;99.9
49901;DHT22;35789;48.414;12.768;2023-01-04T23:55:00;8.4;99.9
